Time;durP1;ratioP1;P1;durP2;ratioP2;P2;SDS_P1;SDS_P2;PMS_P1;PMS_P2;Temp;Humidity;BMP_temperature;BMP_pressure;BME280_temperature;BME280_humidity;BME280_pressure;Samples;Min_cycle;Max_cycle;Signal;HPM_P1;HPM_P2
2022/11/09 00:01:37;;;;;;;18.10;12.00;;;9.30;99.90;;;;;;5012396;28;20218;-70
2022/11/09 00:04:06;;;;;;;16.37;11.60;;;9.30;99.90;;;;;;5010315;28;20243;-69
2022/11/09 00:06:34;;;;;;;18.20;12.77;;;9.30;99.90;;;;;;5007109;28;20215;-70
2022/11/09 00:09:02;;;;;;;20.37;12.57;;;9.30;99.90;;;;;;5008462;28;20207;-69
2022/11/09 00:11:29;;;;;;;19.17;12.13;;;9.30;99.90;;;;;;5011545;28;20546;-72
2022/11/09 00:13:55;;;;;;;16.70;11.63;;;9.30;99.90;;;;;;5012049;28;20218;-70
2022/11/09 00:16:22;;;;;;;17.73;11.63;;;9.40;99.90;;;;;;5011865;28;20221;-71
2022/11/09 00:18:52;;;;;;;17.00;11.70;;;9.30;99.90;;;;;;5011392;28;20582;-71
2022/11/09 00:21:21;;;;;;;17.77;12.20;;;9.30;99.90;;;;;;5011096;28;20720;-71
2022/11/09 00:23:48;;;;;;;16.47;11.87;;;9.30;99.90;;;;;;5011873;28;20211;-69
2022/11/09 00:26:16;;;;;;;17.07;12.47;;;9.30;99.90;;;;;;5005940;28;20203;-70
2022/11/09 00:28:43;;;;;;;18.70;12.40;;;9.30;99.90;;;;;;5011594;28;20207;-71
2022/11/09 00:31:12;;;;;;;17.87;13.00;;;9.30;99.90;;;;;;5011939;28;20211;-69
2022/11/09 00:33:39;;;;;;;18.80;13.03;;;9.30;99.90;;;;;;5011153;28;20207;-71
2022/11/09 00:36:09;;;;;;;22.60;12.50;;;9.30;99.90;;;;;;5023795;28;20309;-71
2022/11/09 00:38:39;;;;;;;18.17;12.30;;;9.20;99.90;;;;;;5010547;28;20231;-71
2022/11/09 00:41:07;;;;;;;18.63;12.70;;;9.20;99.90;;;;;;5011056;28;20346;-69
2022/11/09 00:43:34;;;;;;;16.60;11.83;;;9.20;99.90;;;;;;5009440;28;20648;-69
2022/11/09 00:46:01;;;;;;;21.03;12.57;;;9.20;99.90;;;;;;5011043;28;20695;-69
2022/11/09 00:48:28;;;;;;;21.03;14.17;;;9.20;99.90;;;;;;5012473;28;20586;-68
2022/11/09 00:50:57;;;;;;;21.50;13.73;;;9.20;99.90;;;;;;5011742;28;20211;-69
2022/11/09 00:53:25;;;;;;;20.43;14.00;;;9.10;99.90;;;;;;5010475;28;20652;-70
2022/11/09 00:55:58;;;;;;;18.47;12.40;;;9.20;99.90;;;;;;5002671;28;20215;-70
2022/11/09 00:58:25;;;;;;;19.77;14.17;;;9.20;99.90;;;;;;5010222;28;20683;-70
2022/11/09 01:00:52;;;;;;;18.17;12.67;;;9.20;99.90;;;;;;5011033;28;20562;-70
2022/11/09 01:03:20;;;;;;;20.20;13.23;;;9.10;99.90;;;;;;5011193;28;20227;-70
2022/11/09 01:05:46;;;;;;;20.03;13.37;;;9.10;99.90;;;;;;5010844;28;20237;-71
2022/11/09 01:08:13;;;;;;;20.77;13.10;;;9.10;99.90;;;;;;5010946;28;20690;-71
2022/11/09 01:10:42;;;;;;;19.23;13.43;;;9.20;99.90;;;;;;5010844;28;20210;-69
2022/11/09 01:13:12;;;;;;;19.37;13.70;;;9.10;99.90;;;;;;5011553;28;20613;-70
2022/11/09 01:15:43;;;;;;;18.73;12.77;;;9.10;99.90;;;;;;5011909;28;20552;-70
2022/11/09 01:18:10;;;;;;;18.43;12.90;;;9.10;99.90;;;;;;5009726;28;20234;-70
2022/11/09 01:20:41;;;;;;;19.47;13.60;;;9.20;99.90;;;;;;5011224;28;20226;-69
2022/11/09 01:23:07;;;;;;;18.67;13.00;;;9.20;99.90;;;;;;5010438;28;20238;-70
2022/11/09 01:25:34;;;;;;;23.17;14.57;;;9.10;99.90;;;;;;5010524;28;20207;-70
2022/11/09 01:28:02;;;;;;;19.53;13.47;;;9.20;99.90;;;;;;5009174;28;20250;-70
2022/11/09 01:30:30;;;;;;;22.40;14.17;;;9.10;99.90;;;;;;5010535;28;20219;-69
2022/11/09 01:32:57;;;;;;;20.70;14.17;;;9.10;99.90;;;;;;5010898;28;20215;-69
2022/11/09 01:35:24;;;;;;;19.03;13.10;;;9.10;99.90;;;;;;5003811;28;20208;-69
2022/11/09 01:37:51;;;;;;;19.87;13.60;;;9.10;99.90;;;;;;5011248;28;20203;-71
2022/11/09 01:40:17;;;;;;;23.63;14.70;;;9.00;99.90;;;;;;5011665;28;20215;-70
2022/11/09 01:42:44;;;;;;;22.50;14.67;;;8.90;99.90;;;;;;5009478;28;20290;-73
2022/11/09 01:45:30;;;;;;;22.57;14.33;;;9.00;99.90;;;;;;5012021;28;20219;-70
2022/11/09 01:48:02;;;;;;;26.03;14.80;;;9.00;99.90;;;;;;5011046;28;20591;-71
2022/11/09 01:50:37;;;;;;;20.47;13.57;;;9.00;99.90;;;;;;5014866;28;20204;-71
2022/11/09 01:53:09;;;;;;;26.10;14.63;;;9.00;99.90;;;;;;5013382;28;20556;-70
2022/11/09 01:55:36;;;;;;;23.53;14.50;;;9.00;99.90;;;;;;5014626;28;20965;-70
2022/11/09 01:58:08;;;;;;;21.43;13.77;;;9.00;99.90;;;;;;5014132;28;20215;-70
2022/11/09 02:00:38;;;;;;;21.23;13.80;;;8.90;99.90;;;;;;5014767;28;20340;-70
2022/11/09 02:03:09;;;;;;;22.50;14.17;;;8.90;99.90;;;;;;5016202;28;20238;-70
2022/11/09 02:05:38;;;;;;;21.77;14.53;;;8.90;99.90;;;;;;5011708;28;20214;-69
2022/11/09 02:08:06;;;;;;;19.67;13.97;;;8.90;99.90;;;;;;5016941;28;20221;-70
2022/11/09 02:10:39;;;;;;;21.30;14.07;;;8.90;99.90;;;;;;5005552;28;20215;-69
2022/11/09 02:13:07;;;;;;;21.80;14.17;;;8.90;99.90;;;;;;5010749;28;20214;-71
2022/11/09 02:15:36;;;;;;;21.13;14.17;;;8.90;99.90;;;;;;5011996;28;20233;-69
2022/11/09 02:18:04;;;;;;;21.70;14.53;;;8.80;99.90;;;;;;5018665;28;20329;-70
2022/11/09 02:20:45;;;;;;;21.47;13.67;;;8.80;99.90;;;;;;5017558;28;20212;-70
2022/11/09 02:23:12;;;;;;;22.00;14.70;;;8.80;99.90;;;;;;5012652;28;20579;-69
2022/11/09 02:25:39;;;;;;;24.37;14.67;;;8.80;99.90;;;;;;5011315;28;20231;-70
2022/11/09 02:28:06;;;;;;;20.87;14.37;;;8.70;99.90;;;;;;5010158;28;20676;-70
2022/11/09 02:30:35;;;;;;;24.23;14.57;;;8.70;99.90;;;;;;5008463;28;20211;-69
2022/11/09 02:33:02;;;;;;;23.53;14.23;;;8.70;99.90;;;;;;5011714;28;20686;-71
2022/11/09 02:35:28;;;;;;;21.33;14.87;;;8.70;99.90;;;;;;5012279;28;20651;-71
2022/11/09 02:37:57;;;;;;;23.40;15.47;;;8.70;99.90;;;;;;5011404;28;20579;-72
2022/11/09 02:40:28;;;;;;;24.73;15.40;;;8.70;99.90;;;;;;5013174;28;20290;-70
2022/11/09 02:42:54;;;;;;;25.83;15.40;;;8.70;99.90;;;;;;5011442;28;20211;-69
2022/11/09 02:45:21;;;;;;;24.57;15.57;;;8.60;99.90;;;;;;5011215;28;20195;-70
2022/11/09 02:47:48;;;;;;;23.20;15.53;;;8.60;99.90;;;;;;5011832;28;20218;-71
2022/11/09 02:50:15;;;;;;;22.53;15.17;;;8.70;99.90;;;;;;5011916;28;20215;-70
2022/11/09 02:52:42;;;;;;;22.80;14.47;;;8.60;99.90;;;;;;5009356;28;20207;-72
2022/11/09 02:55:10;;;;;;;24.17;15.43;;;8.60;99.90;;;;;;5011688;28;20218;-70
2022/11/09 02:57:37;;;;;;;22.03;14.83;;;8.60;99.90;;;;;;5009369;28;20218;-71
2022/11/09 03:00:05;;;;;;;24.90;15.43;;;8.50;99.90;;;;;;5011560;28;20235;-71
2022/11/09 03:02:32;;;;;;;24.90;15.37;;;8.50;99.90;;;;;;5008999;28;20239;-70
2022/11/09 03:04:59;;;;;;;23.63;14.63;;;8.50;99.90;;;;;;5012463;28;20215;-70
2022/11/09 03:07:25;;;;;;;27.80;15.60;;;8.50;99.90;;;;;;5011056;28;20210;-71
2022/11/09 03:09:53;;;;;;;23.57;15.70;;;8.50;99.90;;;;;;5012068;28;20203;-69
2022/11/09 03:12:30;;;;;;;26.90;16.10;;;8.50;99.90;;;;;;5008495;28;20211;-70
2022/11/09 03:14:57;;;;;;;21.63;14.93;;;8.40;99.90;;;;;;5012315;28;20239;-70
2022/11/09 03:17:24;;;;;;;26.93;14.70;;;8.50;99.90;;;;;;5010317;28;20216;-71
2022/11/09 03:19:51;;;;;;;24.93;16.20;;;8.40;99.90;;;;;;5012050;28;20227;-70
2022/11/09 03:22:18;;;;;;;26.20;15.37;;;8.40;99.90;;;;;;5007400;28;20207;-70
2022/11/09 03:24:44;;;;;;;24.57;15.63;;;8.40;99.90;;;;;;5012033;28;20555;-70
2022/11/09 03:27:11;;;;;;;22.73;14.60;;;8.40;99.90;;;;;;5007322;28;20211;-71
2022/11/09 03:29:39;;;;;;;23.83;14.93;;;8.40;99.90;;;;;;5012184;28;20204;-68
2022/11/09 03:32:06;;;;;;;24.27;15.80;;;8.50;99.90;;;;;;5012332;28;20231;-70
2022/11/09 03:34:33;;;;;;;24.97;16.17;;;8.40;99.90;;;;;;5011088;28;20203;-70
2022/11/09 03:37:00;;;;;;;27.90;15.80;;;8.40;99.90;;;;;;5012641;28;20207;-71
2022/11/09 03:39:27;;;;;;;22.00;15.30;;;8.40;99.90;;;;;;5011144;28;20329;-71
2022/11/09 03:41:53;;;;;;;24.60;15.83;;;8.40;99.90;;;;;;5011651;28;20212;-70
2022/11/09 03:44:20;;;;;;;25.27;16.27;;;8.30;99.90;;;;;;5012320;28;20214;-71
2022/11/09 03:46:48;;;;;;;29.00;15.70;;;8.30;99.90;;;;;;5010210;28;20675;-71
2022/11/09 03:49:15;;;;;;;26.43;15.97;;;8.40;99.90;;;;;;5013402;28;20317;-70
2022/11/09 03:51:42;;;;;;;25.60;15.53;;;8.40;99.90;;;;;;5011606;28;20215;-69
2022/11/09 03:54:09;;;;;;;24.03;15.50;;;8.40;99.90;;;;;;5011225;28;20656;-71
2022/11/09 03:56:35;;;;;;;23.70;15.03;;;8.40;99.90;;;;;;5005997;28;20226;-70
2022/11/09 03:59:02;;;;;;;23.57;16.13;;;8.40;99.90;;;;;;5002192;28;20227;-70
2022/11/09 04:01:29;;;;;;;23.80;16.13;;;8.40;99.90;;;;;;5010942;28;20255;-68
2022/11/09 04:03:57;;;;;;;22.90;15.60;;;8.40;99.90;;;;;;5011552;28;20262;-68
2022/11/09 04:06:24;;;;;;;22.30;14.87;;;8.40;99.90;;;;;;5009406;28;20215;-71
2022/11/09 04:08:51;;;;;;;23.63;14.83;;;8.30;99.90;;;;;;5011174;28;20411;-69
2022/11/09 04:11:18;;;;;;;24.57;15.97;;;8.40;99.90;;;;;;5010375;28;20206;-70
2022/11/09 04:13:46;;;;;;;22.20;15.57;;;8.40;99.90;;;;;;5004130;28;20211;-70
2022/11/09 04:16:12;;;;;;;24.27;15.60;;;8.40;99.90;;;;;;5014667;28;20612;-70
2022/11/09 04:18:39;;;;;;;24.67;15.50;;;8.40;99.90;;;;;;5018695;28;20651;-70
2022/11/09 04:21:10;;;;;;;25.57;16.07;;;9.10;99.90;;;;;;5016616;28;20214;-69
2022/11/09 04:23:36;;;;;;;23.77;15.87;;;8.40;99.90;;;;;;5011528;28;20207;-71
2022/11/09 04:26:03;;;;;;;24.90;15.57;;;8.40;99.90;;;;;;5009129;28;20214;-71
2022/11/09 04:28:30;;;;;;;23.10;15.57;;;8.40;99.90;;;;;;5011212;28;20603;-71
2022/11/09 04:31:00;;;;;;;26.90;16.23;;;8.40;99.90;;;;;;5002088;28;20215;-71
2022/11/09 04:33:27;;;;;;;26.97;16.67;;;8.40;99.90;;;;;;5011916;28;20238;-71
2022/11/09 04:35:54;;;;;;;25.20;15.87;;;8.30;99.90;;;;;;5004880;28;20219;-69
2022/11/09 04:38:22;;;;;;;26.37;16.07;;;8.30;99.90;;;;;;5011395;28;20211;-69
2022/11/09 04:40:49;;;;;;;27.37;15.13;;;8.40;99.90;;;;;;5011339;28;20347;-70
2022/11/09 04:43:16;;;;;;;28.37;18.13;;;8.40;99.90;;;;;;5010795;28;20965;-70
2022/11/09 04:45:43;;;;;;;24.53;16.40;;;8.40;99.90;;;;;;5011233;28;20629;-70
2022/11/09 04:48:10;;;;;;;22.17;15.20;;;8.30;99.90;;;;;;5010430;28;20207;-69
2022/11/09 04:50:38;;;;;;;23.73;15.80;;;8.30;99.90;;;;;;5010923;28;20237;-70
2022/11/09 04:53:09;;;;;;;25.57;15.87;;;8.30;99.90;;;;;;5011823;28;20671;-69
2022/11/09 04:55:39;;;;;;;29.97;17.37;;;8.30;99.90;;;;;;5008852;28;20214;-70
2022/11/09 04:58:06;;;;;;;24.43;15.83;;;8.30;99.90;;;;;;5010418;28;20215;-69
2022/11/09 05:00:33;;;;;;;25.57;16.33;;;8.20;99.90;;;;;;5010050;28;20230;-69
2022/11/09 05:03:01;;;;;;;31.30;15.97;;;8.30;99.90;;;;;;5010846;28;20235;-70
2022/11/09 05:05:28;;;;;;;25.30;16.10;;;8.20;99.90;;;;;;5010677;28;20237;-69
2022/11/09 05:07:55;;;;;;;24.67;16.03;;;8.20;99.90;;;;;;5007653;28;20211;-70
2022/11/09 05:10:22;;;;;;;24.87;15.77;;;8.20;99.90;;;;;;5010306;28;20228;-70
2022/11/09 05:12:50;;;;;;;25.73;16.03;;;8.20;99.90;;;;;;5012150;28;20251;-69
2022/11/09 05:15:17;;;;;;;24.27;16.30;;;8.20;99.90;;;;;;5011067;28;20211;-69
2022/11/09 05:17:43;;;;;;;24.90;16.23;;;8.20;99.90;;;;;;5011630;28;20214;-69
2022/11/09 05:20:12;;;;;;;27.77;16.40;;;8.20;99.90;;;;;;5011565;28;20227;-68
2022/11/09 05:25:26;;;;;;;25.00;15.93;;;8.20;99.90;;;;;;5008004;28;20206;-70
2022/11/09 05:27:54;;;;;;;25.60;16.53;;;8.20;99.90;;;;;;5015668;28;20213;-69
2022/11/09 05:30:21;;;;;;;24.57;15.60;;;8.10;99.90;;;;;;5008894;28;20196;-72
2022/11/09 05:32:48;;;;;;;24.27;16.50;;;8.10;99.90;;;;;;5012263;28;20484;-69
2022/11/09 05:35:15;;;;;;;25.07;16.10;;;8.10;99.90;;;;;;5015804;28;20230;-71
2022/11/09 05:37:42;;;;;;;27.77;17.20;;;8.10;99.90;;;;;;5014320;28;20218;-69
2022/11/09 05:40:10;;;;;;;27.13;16.47;;;8.10;99.90;;;;;;5007417;28;20235;-70
2022/11/09 05:42:39;;;;;;;26.10;16.57;;;8.10;99.90;;;;;;5010798;28;20652;-72
2022/11/09 05:45:09;;;;;;;27.03;16.83;;;8.10;99.90;;;;;;5014169;28;20211;-71
2022/11/09 05:47:40;;;;;;;28.93;18.03;;;8.10;99.90;;;;;;5013892;28;20676;-71
2022/11/09 05:50:10;;;;;;;27.37;16.87;;;8.10;99.90;;;;;;5013722;28;20203;-72
2022/11/09 05:52:36;;;;;;;27.33;17.23;;;8.10;99.90;;;;;;5011602;28;20326;-71
2022/11/09 05:55:04;;;;;;;25.37;16.47;;;8.00;99.90;;;;;;5013800;28;20225;-69
2022/11/09 05:57:31;;;;;;;27.07;16.33;;;8.00;99.90;;;;;;5020531;28;20218;-70
2022/11/09 05:59:58;;;;;;;27.70;17.17;;;8.00;99.90;;;;;;5011560;28;20230;-69
2022/11/09 06:02:30;;;;;;;29.90;17.57;;;8.00;99.90;;;;;;5018305;28;20703;-68
2022/11/09 06:04:56;;;;;;;25.03;16.23;;;8.10;99.90;;;;;;5011105;28;20226;-71
2022/11/09 06:07:23;;;;;;;33.15;22.02;;;8.00;99.90;;;;;;5004573;28;20488;-70
2022/11/09 06:09:50;;;;;;;24.13;17.47;;;8.10;99.90;;;;;;5007240;28;20226;-71
2022/11/09 06:12:17;;;;;;;35.57;20.20;;;8.00;99.90;;;;;;5008427;28;20211;-71
2022/11/09 06:14:44;;;;;;;41.97;21.40;;;8.10;99.90;;;;;;5003262;28;20211;-69
2022/11/09 06:17:11;;;;;;;26.27;17.53;;;8.00;99.90;;;;;;5002169;28;20569;-69
2022/11/09 06:19:39;;;;;;;31.00;17.57;;;8.10;99.90;;;;;;5007089;28;20588;-71
2022/11/09 06:22:06;;;;;;;26.17;16.60;;;8.10;99.90;;;;;;5002352;28;20259;-69
2022/11/09 06:24:32;;;;;;;25.30;17.03;;;8.20;99.90;;;;;;5007562;28;20212;-70
2022/11/09 06:26:59;;;;;;;29.33;17.93;;;8.20;99.90;;;;;;5008645;28;20211;-72
2022/11/09 06:29:26;;;;;;;27.77;18.00;;;8.20;99.90;;;;;;5008533;28;20551;-69
2022/11/09 06:31:53;;;;;;;29.83;17.70;;;8.30;99.90;;;;;;5010258;28;20226;-69
2022/11/09 06:34:20;;;;;;;25.37;16.43;;;8.30;99.90;;;;;;5010387;28;20238;-70
2022/11/09 06:36:48;;;;;;;26.60;17.03;;;8.30;99.90;;;;;;5014799;28;20211;-67
2022/11/09 06:39:15;;;;;;;27.77;16.93;;;8.30;99.90;;;;;;5002267;28;20208;-70
2022/11/09 06:41:41;;;;;;;25.60;16.10;;;8.40;99.90;;;;;;5009249;28;20715;-69
2022/11/09 06:44:08;;;;;;;26.60;17.70;;;8.40;99.90;;;;;;5007341;28;20814;-69
2022/11/09 06:46:35;;;;;;;25.87;17.07;;;8.40;99.90;;;;;;5010100;28;20674;-71
2022/11/09 06:49:02;;;;;;;30.33;18.30;;;8.40;99.90;;;;;;5012069;28;20558;-71
2022/11/09 06:51:28;;;;;;;28.53;17.23;;;8.50;99.90;;;;;;5011847;28;20694;-70
2022/11/09 06:53:57;;;;;;;23.87;15.97;;;8.50;99.90;;;;;;5011038;28;20200;-67
2022/11/09 06:56:23;;;;;;;28.70;18.90;;;8.50;99.90;;;;;;5007343;28;20203;-68
2022/11/09 06:58:50;;;;;;;30.67;17.83;;;8.50;99.90;;;;;;5008339;28;20211;-70
2022/11/09 07:01:18;;;;;;;27.20;17.67;;;8.60;99.90;;;;;;5009785;28;20238;-70
2022/11/09 07:03:45;;;;;;;28.53;17.47;;;8.70;99.90;;;;;;5009594;28;20251;-72
2022/11/09 07:06:13;;;;;;;31.00;20.45;;;8.80;99.90;;;;;;5008848;28;20442;-69
2022/11/09 07:08:40;;;;;;;29.65;21.40;;;8.80;99.90;;;;;;5007643;28;20506;-68
2022/11/09 07:11:10;;;;;;;25.20;17.27;;;9.00;99.90;;;;;;5009562;28;20203;-70
2022/11/09 07:13:37;;;;;;;30.40;20.35;;;9.00;99.90;;;;;;5009908;28;20493;-68
2022/11/09 07:16:05;;;;;;;28.40;17.90;;;9.10;99.90;;;;;;5009526;28;20234;-68
2022/11/09 07:18:32;;;;;;;26.33;16.83;;;9.10;99.90;;;;;;5009256;28;20303;-68
2022/11/09 07:20:59;;;;;;;25.93;16.70;;;9.20;99.90;;;;;;5009446;28;20654;-70
2022/11/09 07:23:25;;;;;;;27.57;17.60;;;9.20;99.90;;;;;;5008640;28;20566;-69
2022/11/09 07:25:52;;;;;;;28.13;17.80;;;9.20;99.90;;;;;;5012008;28;20694;-70
2022/11/09 07:28:21;;;;;;;26.90;17.47;;;9.20;99.90;;;;;;5019753;28;20218;-72
2022/11/09 07:30:51;;;;;;;30.63;17.70;;;9.20;99.90;;;;;;5012739;28;20203;-70
2022/11/09 07:33:19;;;;;;;26.77;17.30;;;9.30;99.90;;;;;;5006057;28;20255;-72
2022/11/09 07:35:46;;;;;;;27.30;17.63;;;9.30;99.90;;;;;;5000687;28;20237;-70
2022/11/09 07:38:14;;;;;;;26.97;17.60;;;9.30;99.90;;;;;;5010920;28;20791;-70
2022/11/09 07:40:41;;;;;;;31.07;18.30;;;9.40;99.90;;;;;;5006156;28;20231;-68
2022/11/09 07:43:10;;;;;;;29.50;18.03;;;9.40;99.90;;;;;;5006787;28;20206;-68
2022/11/09 07:45:38;;;;;;;30.33;18.40;;;9.50;99.90;;;;;;5011154;28;20211;-70
2022/11/09 07:48:08;;;;;;;28.27;17.07;;;9.50;99.90;;;;;;5006674;28;20204;-72
2022/11/09 07:50:36;;;;;;;25.50;17.60;;;9.60;99.90;;;;;;5010398;28;20222;-68
2022/11/09 07:53:04;;;;;;;27.40;17.00;;;9.70;99.90;;;;;;5008525;28;20455;-70
2022/11/09 07:55:31;;;;;;;25.97;18.00;;;9.80;99.90;;;;;;5006829;28;20214;-68
2022/11/09 07:57:59;;;;;;;30.77;17.63;;;9.80;99.90;;;;;;5009431;28;20212;-70
2022/11/09 08:00:27;;;;;;;24.50;16.20;;;9.90;99.90;;;;;;5008344;28;20219;-66
2022/11/09 08:02:56;;;;;;;27.60;17.47;;;10.00;99.90;;;;;;5003994;28;20235;-72
2022/11/09 08:05:23;;;;;;;24.93;16.77;;;10.00;99.90;;;;;;5010058;28;20222;-69
2022/11/09 08:07:54;;;;;;;30.77;17.20;;;10.20;99.90;;;;;;5010102;28;20215;-68
2022/11/09 08:10:21;;;;;;;26.80;17.20;;;10.30;99.90;;;;;;5009711;28;20282;-68
2022/11/09 08:12:53;;;;;;;26.67;17.33;;;10.30;99.90;;;;;;5008837;28;20834;-69
2022/11/09 08:15:20;;;;;;;28.43;17.87;;;10.50;99.90;;;;;;5006733;28;20230;-68
2022/11/09 08:17:46;;;;;;;27.80;17.70;;;10.70;99.90;;;;;;5007581;28;20214;-69
2022/11/09 08:20:15;;;;;;;25.97;16.40;;;10.90;99.90;;;;;;5008377;28;20230;-69
2022/11/09 08:22:42;;;;;;;28.17;17.27;;;11.00;99.90;;;;;;5003814;28;20208;-68
2022/11/09 08:25:09;;;;;;;26.40;17.03;;;11.00;99.90;;;;;;5010077;28;20227;-69
2022/11/09 08:27:39;;;;;;;24.50;17.43;;;11.10;99.90;;;;;;5010023;28;20219;-67
2022/11/09 08:30:07;;;;;;;26.33;17.57;;;11.20;99.90;;;;;;5005186;28;20205;-69
2022/11/09 08:32:34;;;;;;;30.30;17.17;;;11.30;99.90;;;;;;5008011;28;20204;-70
2022/11/09 08:35:01;;;;;;;24.70;16.87;;;11.40;99.90;;;;;;5008384;28;20210;-70
2022/11/09 08:37:29;;;;;;;27.67;17.33;;;11.40;99.90;;;;;;5010698;28;20210;-68
2022/11/09 08:39:58;;;;;;;30.37;17.70;;;11.50;99.90;;;;;;5009230;28;20211;-71
2022/11/09 08:42:25;;;;;;;27.30;17.60;;;11.80;99.90;;;;;;5009768;28;20218;-71
2022/11/09 08:44:52;;;;;;;25.73;16.13;;;12.50;99.90;;;;;;5007875;28;20211;-69
2022/11/09 08:47:19;;;;;;;23.67;16.50;;;13.80;99.90;;;;;;5012939;28;20586;-69
2022/11/09 08:49:46;;;;;;;23.17;15.90;;;15.10;99.90;;;;;;5008641;28;20215;-68
2022/11/09 08:52:12;;;;;;;21.37;15.67;;;16.50;99.90;;;;;;5009802;28;20207;-70
2022/11/09 08:54:41;;;;;;;22.27;15.93;;;17.00;99.90;;;;;;5008274;28;20300;-70
2022/11/09 08:57:07;;;;;;;22.97;16.10;;;17.40;99.90;;;;;;5013321;28;20211;-69
2022/11/09 08:59:34;;;;;;;23.90;16.20;;;18.00;99.90;;;;;;5014629;28;20250;-68
2022/11/09 09:02:01;;;;;;;26.80;17.13;;;18.20;99.90;;;;;;5009173;28;20223;-70
2022/11/09 09:04:28;;;;;;;24.40;16.43;;;17.90;99.90;;;;;;5017457;28;20239;-69
2022/11/09 09:06:55;;;;;;;22.10;16.20;;;17.50;99.90;;;;;;5014557;28;20220;-69
2022/11/09 09:09:22;;;;;;;23.30;17.27;;;17.20;99.90;;;;;;5014190;28;20210;-69
2022/11/09 09:11:51;;;;;;;22.17;16.80;;;17.40;99.90;;;;;;5012125;28;20199;-69
2022/11/09 09:14:17;;;;;;;22.53;16.70;;;17.90;99.90;;;;;;5012368;28;20683;-69
2022/11/09 09:16:44;;;;;;;21.93;15.37;;;18.10;99.90;;;;;;5011149;28;20237;-69
2022/11/09 09:19:11;;;;;;;22.40;16.85;;;18.80;99.90;;;;;;5012979;28;20265;-67
2022/11/09 09:21:38;;;;;;;19.67;14.77;;;19.60;98.80;;;;;;5008465;28;20230;-69
2022/11/09 09:24:05;;;;;;;19.85;15.05;;;20.30;97.20;;;;;;5011972;28;20200;-70
2022/11/09 09:26:32;;;;;;;22.85;16.35;;;21.10;95.10;;;;;;5001593;28;20203;-69
2022/11/09 09:29:00;;;;;;;19.90;15.10;;;21.60;91.70;;;;;;5013593;28;20603;-68
2022/11/09 09:31:27;;;;;;;19.90;15.07;;;21.00;88.90;;;;;;5010221;28;20246;-69
2022/11/09 09:33:54;;;;;;;21.95;15.68;;;20.20;90.40;;;;;;5012193;28;20571;-68
2022/11/09 09:36:23;;;;;;;20.35;15.18;;;19.70;91.00;;;;;;5012447;28;20222;-68
2022/11/09 09:38:51;;;;;;;23.58;15.90;;;19.10;91.60;;;;;;5010602;28;20207;-68
2022/11/09 09:41:22;;;;;;;21.98;16.55;;;18.90;93.30;;;;;;5000745;28;20703;-68
2022/11/09 09:43:54;;;;;;;23.60;16.33;;;19.00;93.70;;;;;;4999026;28;20684;-69
2022/11/09 09:46:30;;;;;;;22.35;16.30;;;19.20;92.90;;;;;;5005030;28;20215;-68
2022/11/09 09:49:00;;;;;;;20.27;15.68;;;19.30;92.80;;;;;;5010332;28;20226;-70
2022/11/09 09:51:34;;;;;;;21.08;15.85;;;19.10;92.00;;;;;;5011749;28;20195;-68
2022/11/09 09:54:06;;;;;;;22.13;17.20;;;18.80;92.10;;;;;;5009256;28;20735;-68
2022/11/09 09:56:38;;;;;;;24.15;15.90;;;18.20;92.40;;;;;;5010919;28;20207;-69
2022/11/09 09:59:11;;;;;;;21.23;16.77;;;17.40;93.50;;;;;;5006141;28;20236;-69
2022/11/09 10:01:42;;;;;;;23.83;16.47;;;16.80;95.30;;;;;;5010562;28;20216;-69
2022/11/09 10:04:16;;;;;;;25.13;16.87;;;16.30;96.50;;;;;;5010092;28;20242;-66
2022/11/09 10:06:58;;;;;;;23.50;16.03;;;15.90;97.80;;;;;;5008133;28;20599;-68
2022/11/09 10:09:37;;;;;;;25.10;16.57;;;15.70;99.10;;;;;;5009100;28;20203;-68
2022/11/09 10:12:13;;;;;;;23.53;16.63;;;15.60;99.90;;;;;;5011916;28;20207;-68
2022/11/09 10:15:01;;;;;;;24.23;16.83;;;15.50;99.90;;;;;;5009946;28;20210;-67
2022/11/09 10:17:38;;;;;;;22.50;16.50;;;15.30;99.90;;;;;;5007174;28;20211;-67
2022/11/09 10:20:21;;;;;;;23.20;16.90;;;15.10;99.90;;;;;;5001721;28;20210;-67
2022/11/09 10:23:01;;;;;;;21.87;16.63;;;14.90;99.90;;;;;;5009010;28;20577;-68
2022/11/09 10:25:33;;;;;;;23.60;16.97;;;14.80;99.90;;;;;;5010822;28;20215;-68
2022/11/09 10:28:02;;;;;;;28.03;16.97;;;14.60;99.90;;;;;;5009800;28;20207;-69
2022/11/09 10:30:30;;;;;;;25.23;16.97;;;14.50;99.90;;;;;;5008643;28;20218;-67
2022/11/09 10:33:03;;;;;;;23.47;16.63;;;14.50;99.90;;;;;;5010340;28;20211;-68
2022/11/09 10:35:35;;;;;;;24.30;17.03;;;14.30;99.90;;;;;;5008335;28;20195;-68
2022/11/09 10:38:01;;;;;;;24.20;16.33;;;14.20;99.90;;;;;;5009361;28;20210;-67
2022/11/09 10:40:33;;;;;;;26.53;17.63;;;14.10;99.90;;;;;;5011730;28;20222;-67
2022/11/09 10:43:01;;;;;;;25.13;16.93;;;14.00;99.90;;;;;;5005132;28;20214;-68
2022/11/09 10:45:31;;;;;;;25.47;17.10;;;14.00;99.90;;;;;;5009801;28;20211;-67
2022/11/09 10:48:00;;;;;;;27.77;17.73;;;14.60;99.90;;;;;;5006705;28;20294;-68
2022/11/09 10:50:32;;;;;;;23.23;16.53;;;15.40;99.90;;;;;;5011570;28;20226;-67
2022/11/09 10:53:10;;;;;;;24.20;17.47;;;16.00;99.90;;;;;;5011215;28;20211;-68
2022/11/09 10:55:38;;;;;;;24.33;16.53;;;16.50;99.90;;;;;;5011489;28;20219;-67
2022/11/09 10:58:23;;;;;;;24.17;17.40;;;16.70;99.90;;;;;;5009460;28;20211;-68
2022/11/09 11:01:00;;;;;;;25.90;17.63;;;16.70;99.90;;;;;;5011636;28;20239;-67
2022/11/09 11:03:29;;;;;;;24.30;16.47;;;16.50;99.90;;;;;;5006546;28;20679;-68
2022/11/09 11:06:01;;;;;;;24.47;17.20;;;16.30;99.90;;;;;;5008972;28;20212;-68
2022/11/09 11:08:35;;;;;;;20.83;16.37;;;16.30;99.90;;;;;;5004383;28;20601;-69
2022/11/09 11:11:24;;;;;;;26.43;16.97;;;16.90;99.90;;;;;;5000650;28;20204;-68
2022/11/09 11:14:06;;;;;;;22.90;16.63;;;17.30;99.90;;;;;;5002786;28;20780;-69
2022/11/09 11:16:35;;;;;;;21.53;15.40;;;17.60;99.90;;;;;;5019391;28;20231;-68
2022/11/09 11:19:04;;;;;;;23.63;16.20;;;17.60;99.90;;;;;;5007438;28;20218;-68
2022/11/09 11:21:31;;;;;;;22.45;16.40;;;17.90;99.90;;;;;;5011137;28;20315;-68
2022/11/09 11:24:13;;;;;;;22.40;16.13;;;18.00;99.90;;;;;;5007163;28;20215;-71
2022/11/09 11:26:47;;;;;;;23.90;16.65;;;18.10;99.90;;;;;;5011377;28;20434;-67
2022/11/09 11:29:37;;;;;;;24.23;16.10;;;18.10;99.90;;;;;;4998490;28;20211;-72
2022/11/09 11:32:07;;;;;;;24.30;16.92;;;18.20;99.90;;;;;;4996228;28;20218;-70
2022/11/09 11:34:38;;;;;;;21.90;16.75;;;18.20;99.80;;;;;;5002236;28;20652;-71
2022/11/09 11:37:24;;;;;;;23.50;17.00;;;18.10;99.70;;;;;;5008904;28;20297;-74
2022/11/09 11:40:01;;;;;;;22.33;16.15;;;18.00;98.80;;;;;;5009700;28;20222;-71
2022/11/09 11:43:02;;;;;;;21.38;15.70;;;17.70;99.00;;;;;;5008632;28;20974;-70
2022/11/09 11:45:35;;;;;;;20.38;15.63;;;17.40;99.90;;;;;;5004955;28;20222;-70
2022/11/09 11:48:27;;;;;;;23.13;17.15;;;17.10;99.80;;;;;;5007324;28;20201;-71
2022/11/09 11:51:01;;;;;;;22.63;16.20;;;16.90;99.90;;;;;;5001391;28;20210;-70
2022/11/09 11:53:47;;;;;;;23.10;15.03;;;16.70;99.90;;;;;;5009298;28;20199;-69
2022/11/09 11:56:27;;;;;;;19.97;15.33;;;16.40;99.90;;;;;;5010967;28;20573;-69
2022/11/09 11:59:19;;;;;;;20.83;16.07;;;16.20;99.90;;;;;;5009072;28;20203;-69
2022/11/09 12:02:24;;;;;;;27.20;16.43;;;16.00;99.90;;;;;;5010740;28;20590;-68
2022/11/09 12:05:06;;;;;;;21.77;16.37;;;15.90;99.90;;;;;;5004524;28;20211;-70
2022/11/09 12:07:41;;;;;;;28.00;16.37;;;15.80;99.90;;;;;;5006610;28;20203;-70
2022/11/09 12:10:21;;;;;;;25.20;16.07;;;15.80;99.90;;;;;;5000991;28;20206;-71
2022/11/09 12:13:00;;;;;;;23.37;15.70;;;15.80;99.90;;;;;;5010126;28;20191;-69
2022/11/09 12:15:39;;;;;;;22.60;15.97;;;15.80;99.90;;;;;;5012275;28;20651;-69
2022/11/09 12:18:17;;;;;;;23.80;15.23;;;15.90;99.90;;;;;;5011528;28;20571;-68
2022/11/09 12:20:51;;;;;;;26.17;18.80;;;15.80;99.90;;;;;;5007261;28;21119;-69
2022/11/09 12:23:37;;;;;;;24.17;16.90;;;15.80;99.90;;;;;;5006861;28;20194;-68
2022/11/09 12:26:16;;;;;;;23.17;16.33;;;15.80;99.90;;;;;;5010217;28;20205;-70
2022/11/09 12:29:02;;;;;;;23.55;17.25;;;15.70;99.90;;;;;;5012252;28;20438;-69
2022/11/09 12:31:39;;;;;;;23.43;16.20;;;15.70;99.90;;;;;;5002324;28;20199;-68
2022/11/09 12:34:14;;;;;;;24.08;18.08;;;15.50;99.90;;;;;;5010824;28;20546;-71
2022/11/09 12:36:46;;;;;;;28.13;19.02;;;15.40;99.90;;;;;;5002410;28;20472;-70
2022/11/09 12:39:22;;;;;;;29.33;18.30;;;15.40;99.90;;;;;;5002578;28;20287;-71
2022/11/09 12:41:50;;;;;;;20.57;14.77;;;15.40;99.90;;;;;;5006671;28;20223;-67
2022/11/09 12:44:22;;;;;;;18.43;14.73;;;15.40;99.90;;;;;;5008236;28;20216;-69
2022/11/09 12:46:53;;;;;;;21.97;14.97;;;15.50;99.90;;;;;;5004976;28;20697;-69
2022/11/09 12:49:31;;;;;;;22.47;14.90;;;15.40;99.90;;;;;;5011508;28;20210;-70